Arney, Indiana
Current Conditions -  °F | °C
As of 9:53 AM on Wednesday 26 Nov 2014 (Local Time) from KBMG Reporting Station
Overcast Overcast  
Wind Chill: 23°   Ceiling: 1200
Heat Index: 28°   Visibility: 10mi
Dew Point: 23°   Wind: 5mph
Humidity: 81%   Direction: NA
Pressure: 30.13"   Gusts: NA
Location:  39.2107°N, 86.8508°W
Report Text: KBMG 261453Z VRB04KT 10SM OVC012 M02/M05 A3013 RMK AO2 SLP212 T10221050 50003
Loading
Personal Weather Stations






























Interactive Weather Map New forecast layout! Learn more

10-Day Weather Forecast

Advertisements
Track Severe Weather on mobile